createdAt,value
2023-04-05T00:02:14.128Z,67.24
2023-04-05T00:04:50.392Z,65.32
2023-04-05T00:07:19.211Z,67.19
2023-04-05T00:09:48.976Z,65.84
2023-04-05T00:12:16.765Z,67.23
2023-04-05T00:14:44.467Z,66.44
2023-04-05T00:17:13.285Z,66.05
2023-04-05T00:19:40.994Z,66.09
2023-04-05T00:22:10.911Z,67.28
2023-04-05T00:24:41.960Z,66.68
2023-04-05T00:27:11.048Z,65.68
2023-04-05T00:29:38.775Z,67.41
2023-04-05T00:32:06.462Z,67.05
2023-04-05T00:34:34.551Z,68.77
2023-04-05T00:37:02.232Z,70.63
2023-04-05T00:39:29.960Z,71.53
2023-04-05T00:41:57.682Z,71.17
2023-04-05T00:44:26.718Z,70.63
2023-04-05T00:46:54.367Z,71.30
2023-04-05T00:49:22.053Z,71.20
2023-04-05T00:51:49.771Z,70.94
2023-04-05T00:54:17.490Z,71.12
2023-04-05T00:56:45.639Z,71.54
2023-04-05T00:59:13.414Z,73.10
2023-04-05T01:01:42.609Z,71.39
2023-04-05T01:04:11.603Z,71.82
2023-04-05T01:06:48.764Z,73.16
2023-04-05T01:09:26.693Z,72.65
2023-04-05T01:11:56.793Z,73.71
2023-04-05T01:14:24.498Z,73.32
2023-04-05T01:16:58.126Z,73.64
2023-04-05T01:19:28.865Z,73.92
2023-04-05T01:22:32.100Z,74.18
2023-04-05T01:25:11.871Z,75.38
2023-04-05T01:27:55.132Z,74.67
2023-04-05T01:30:26.558Z,73.53
2023-04-05T01:33:08.291Z,75.52
2023-04-05T01:35:41.511Z,74.78
2023-04-05T01:38:11.445Z,75.48
2023-04-05T01:40:46.367Z,74.95
2023-04-05T01:43:15.240Z,76.04
2023-04-05T01:45:45.453Z,75.15
2023-04-05T01:48:13.488Z,74.77
2023-04-05T01:50:41.687Z,74.74
2023-04-05T01:53:09.753Z,76.36
2023-04-05T01:55:37.434Z,74.63
2023-04-05T01:58:05.407Z,75.38
2023-04-05T02:00:33.119Z,76.19
2023-04-05T02:03:02.307Z,77.67
2023-04-05T02:05:30.030Z,76.72
2023-04-05T02:07:57.712Z,77.15
2023-04-05T02:10:25.733Z,77.25
2023-04-05T02:12:53.399Z,76.40
2023-04-05T02:15:21.116Z,76.98
2023-04-05T02:17:48.893Z,76.19
2023-04-05T02:20:18.466Z,77.05
2023-04-05T02:22:46.130Z,78.48
2023-04-05T02:25:14.137Z,80.75
2023-04-05T02:27:41.836Z,81.62
2023-04-05T02:30:10.577Z,82.30
2023-04-05T02:32:38.273Z,81.76
2023-04-05T02:35:06.870Z,83.88
2023-04-05T02:37:36.228Z,83.91
2023-04-05T02:40:05.456Z,82.86
2023-04-05T02:42:33.128Z,82.23
2023-04-05T02:45:01.132Z,84.25
2023-04-05T02:47:28.874Z,84.41
2023-04-05T02:49:56.580Z,85.90
2023-04-05T02:52:24.275Z,85.37
2023-04-05T02:54:53.331Z,84.33
2023-04-05T02:57:21.298Z,84.81
2023-04-05T02:59:49.265Z,85.71
2023-04-05T03:02:17.176Z,85.67
2023-04-05T03:04:45.073Z,86.72
2023-04-05T03:07:14.493Z,86.75
2023-04-05T03:09:43.126Z,86.48
2023-04-05T03:12:12.103Z,86.04
2023-04-05T03:14:41.088Z,86.65
2023-04-05T03:17:08.779Z,89.61
2023-04-05T03:19:36.631Z,90.42
2023-04-05T03:22:04.307Z,91.84
2023-04-05T03:24:32.787Z,92.55
2023-04-05T03:27:03.274Z,92.32
2023-04-05T03:29:32.482Z,90.92
2023-04-05T03:32:00.224Z,89.75
2023-04-05T03:34:29.033Z,89.33
2023-04-05T03:36:56.785Z,93.90
2023-04-05T03:39:24.467Z,93.21
2023-04-05T03:41:52.194Z,94.09
2023-04-05T03:44:19.866Z,93.01
2023-04-05T03:46:49.093Z,93.85
2023-04-05T03:49:16.776Z,95.12
2023-04-05T03:51:44.433Z,96.13
2023-04-05T03:54:12.094Z,97.26
2023-04-05T03:56:39.893Z,93.97
2023-04-05T03:59:07.729Z,94.80
2023-04-05T04:01:37.014Z,100.00
2023-04-05T04:04:06.139Z,100.00
2023-04-05T04:06:34.056Z,100.00
2023-04-05T04:09:02.040Z,99.56
2023-04-05T04:11:29.727Z,100.00
2023-04-05T04:13:57.409Z,97.91
2023-04-05T04:16:27.363Z,94.60
2023-04-05T04:18:56.431Z,92.44
2023-04-05T04:21:25.641Z,91.28
2023-04-05T04:23:53.339Z,91.01
2023-04-05T04:26:26.868Z,89.66
2023-04-05T04:28:54.498Z,88.72
2023-04-05T04:31:22.721Z,88.14
2023-04-05T04:33:53.416Z,89.14
2023-04-05T04:36:34.981Z,89.21
2023-04-05T04:39:06.723Z,89.81
2023-04-05T04:41:35.780Z,91.25
2023-04-05T04:44:04.352Z,91.31
2023-04-05T04:46:34.730Z,92.63
2023-04-05T04:49:05.809Z,92.19
2023-04-05T04:51:34.456Z,92.69
2023-04-05T04:54:02.162Z,91.78
2023-04-05T04:56:31.472Z,91.27
2023-04-05T04:58:59.340Z,92.41
2023-04-05T05:01:27.192Z,91.77
2023-04-05T05:03:55.026Z,90.89
2023-04-05T05:06:23.058Z,90.06
2023-04-05T05:08:51.015Z,89.94
2023-04-05T05:11:19.226Z,91.25
2023-04-05T05:13:51.928Z,91.10
2023-04-05T05:16:21.756Z,90.44
2023-04-05T05:18:49.578Z,90.48
2023-04-05T05:21:17.272Z,89.49
2023-04-05T05:23:44.965Z,89.48
2023-04-05T05:26:14.544Z,89.98
2023-04-05T05:28:42.275Z,91.03
2023-04-05T05:31:12.178Z,90.29
2023-04-05T05:33:39.987Z,89.60
2023-04-05T05:36:08.718Z,91.52
2023-04-05T05:38:36.577Z,90.44
2023-04-05T05:41:04.355Z,90.68
2023-04-05T05:43:32.056Z,89.71
2023-04-05T05:46:01.935Z,88.39
2023-04-05T05:48:31.099Z,87.63
2023-04-05T05:51:01.642Z,85.93
2023-04-05T05:53:29.315Z,86.13
2023-04-05T05:55:56.973Z,84.70
2023-04-05T05:58:24.705Z,84.49
2023-04-05T06:00:56.878Z,83.97
2023-04-05T06:03:25.804Z,83.41
2023-04-05T06:05:55.583Z,81.22
2023-04-05T06:08:23.485Z,79.58
2023-04-05T06:10:51.815Z,78.18
2023-04-05T06:13:19.496Z,78.24
2023-04-05T06:15:48.421Z,78.68
2023-04-05T06:18:16.772Z,78.38
2023-04-05T06:20:44.736Z,76.64
2023-04-05T06:23:13.977Z,74.66
2023-04-05T06:25:41.752Z,73.93
2023-04-05T06:28:09.407Z,72.25
2023-04-05T06:30:37.164Z,70.57
2023-04-05T06:33:05.088Z,69.53
2023-04-05T06:35:33.375Z,67.03
2023-04-05T06:38:01.193Z,66.74
2023-04-05T06:40:30.464Z,66.25
2023-04-05T06:42:58.315Z,65.28
2023-04-05T06:45:26.380Z,64.59
2023-04-05T06:47:54.119Z,64.63
2023-04-05T06:50:21.974Z,64.59
2023-04-05T06:52:49.687Z,63.99
2023-04-05T06:55:17.493Z,63.33
2023-04-05T06:57:46.526Z,61.55
2023-04-05T07:00:17.392Z,60.85
2023-04-05T07:02:45.181Z,60.30
2023-04-05T07:05:12.963Z,59.89
2023-04-05T07:07:42.325Z,58.75
2023-04-05T07:10:10.941Z,58.22
2023-04-05T07:12:38.719Z,56.92
2023-04-05T07:15:09.156Z,57.36
2023-04-05T07:17:36.935Z,57.05
2023-04-05T07:20:08.073Z,56.34
2023-04-05T07:22:36.227Z,57.38
2023-04-05T07:25:03.961Z,57.54
2023-04-05T07:27:31.702Z,56.48
2023-04-05T07:29:59.413Z,56.94
2023-04-05T07:32:28.532Z,58.31
2023-04-05T07:34:56.812Z,55.81
2023-04-05T07:37:24.509Z,56.18
2023-04-05T07:39:52.156Z,56.45
2023-04-05T07:42:21.562Z,55.10
2023-04-05T07:44:49.303Z,54.91
2023-04-05T07:47:17.094Z,55.21
2023-04-05T07:49:46.279Z,51.93
2023-04-05T07:52:13.990Z,51.52
2023-04-05T07:54:43.230Z,51.04
2023-04-05T07:57:11.320Z,49.42
2023-04-05T07:59:39.100Z,49.56
2023-04-05T08:02:14.586Z,48.26
2023-04-05T08:04:42.799Z,47.97
2023-04-05T08:07:11.844Z,47.54
2023-04-05T08:09:39.570Z,46.21
2023-04-05T08:12:07.752Z,44.92
2023-04-05T08:14:35.572Z,44.52
2023-04-05T08:17:03.226Z,44.77
2023-04-05T08:19:30.977Z,44.10
2023-04-05T08:21:58.759Z,43.83
2023-04-05T08:24:27.882Z,43.42
2023-04-05T08:26:56.298Z,43.12
2023-04-05T08:29:24.191Z,42.99
2023-04-05T08:31:52.009Z,41.52
2023-04-05T08:34:19.677Z,42.81
2023-04-05T08:36:48.797Z,41.91
2023-04-05T08:39:16.683Z,42.46
2023-04-05T08:41:49.100Z,41.18
2023-04-05T08:44:17.139Z,41.07
2023-04-05T08:46:44.931Z,43.29
2023-04-05T08:49:12.649Z,41.27
2023-04-05T08:51:40.550Z,41.11
2023-04-05T08:54:08.328Z,39.91
2023-04-05T08:56:37.216Z,40.02
2023-04-05T08:59:07.268Z,40.93
2023-04-05T09:01:38.035Z,41.83
2023-04-05T09:04:08.210Z,42.02
2023-04-05T09:06:37.105Z,41.66
2023-04-05T09:09:07.829Z,39.70
2023-04-05T09:11:35.875Z,39.70
2023-04-05T09:14:04.391Z,39.90
2023-04-05T09:16:34.836Z,39.30
2023-04-05T09:19:02.607Z,39.29
2023-04-05T09:21:30.500Z,39.13
2023-04-05T09:23:58.261Z,39.75
2023-04-05T09:26:27.296Z,39.39
2023-04-05T09:28:55.053Z,39.43
2023-04-05T09:31:34.599Z,39.16
2023-04-05T09:34:03.969Z,39.21
2023-04-05T09:36:32.943Z,39.28
2023-04-05T09:39:08.013Z,37.57
2023-04-05T09:41:36.792Z,37.01
2023-04-05T09:44:04.673Z,38.24
2023-04-05T09:46:37.337Z,37.95
2023-04-05T09:49:07.881Z,38.44
2023-04-05T09:51:37.372Z,38.03
2023-04-05T09:54:06.470Z,38.70
2023-04-05T09:56:35.498Z,37.84
2023-04-05T09:59:04.731Z,37.49
2023-04-05T10:01:34.658Z,36.14
2023-04-05T10:04:03.047Z,37.72
2023-04-05T10:06:38.265Z,38.38
2023-04-05T10:09:06.676Z,38.31
2023-04-05T10:11:35.181Z,38.97
2023-04-05T10:14:04.867Z,38.59
2023-04-05T10:16:38.551Z,38.23
2023-04-05T10:19:07.274Z,36.81
2023-04-05T10:21:36.865Z,37.20
2023-04-05T10:24:11.212Z,37.64
2023-04-05T10:26:42.849Z,37.42
2023-04-05T10:29:14.433Z,38.76
2023-04-05T10:31:52.074Z,38.87
2023-04-05T10:34:27.394Z,37.39
2023-04-05T10:37:02.611Z,37.23
2023-04-05T10:39:32.211Z,36.15
2023-04-05T10:42:02.647Z,35.80
2023-04-05T10:44:34.176Z,36.12
2023-04-05T10:47:03.905Z,35.12
2023-04-05T10:49:38.155Z,35.33
2023-04-05T10:52:07.525Z,36.14
2023-04-05T10:54:37.370Z,35.05
2023-04-05T10:57:09.795Z,34.99
2023-04-05T10:59:45.618Z,35.90
2023-04-05T11:02:15.408Z,35.53
2023-04-05T11:04:43.320Z,34.92
2023-04-05T11:07:12.425Z,35.74
2023-04-05T11:09:41.719Z,35.51
2023-04-05T11:12:09.488Z,35.40
2023-04-05T11:14:39.119Z,34.67
2023-04-05T11:17:26.602Z,34.62
2023-04-05T11:20:03.864Z,35.09
2023-04-05T11:22:32.356Z,34.30
2023-04-05T11:25:02.910Z,34.18
2023-04-05T11:27:31.868Z,33.95
2023-04-05T11:30:00.729Z,32.66
2023-04-05T11:32:41.854Z,32.87
2023-04-05T11:35:14.423Z,32.08
2023-04-05T11:37:55.461Z,33.33
2023-04-05T11:40:27.996Z,34.01
2023-04-05T11:43:00.862Z,34.10
2023-04-05T11:45:31.220Z,34.73
2023-04-05T11:48:02.626Z,33.02
2023-04-05T11:50:30.870Z,33.38
2023-04-05T11:53:12.269Z,34.69
2023-04-05T11:55:40.711Z,33.46
2023-04-05T11:58:16.008Z,33.15
2023-04-05T12:00:44.428Z,33.39
2023-04-05T12:03:14.465Z,33.21
2023-04-05T12:05:49.905Z,31.92
2023-04-05T12:08:18.091Z,34.15
2023-04-05T12:10:46.551Z,32.52
2023-04-05T12:13:14.353Z,32.79
2023-04-05T12:15:42.485Z,32.37
2023-04-05T12:18:17.591Z,33.57
2023-04-05T12:20:45.673Z,33.82
2023-04-05T12:23:13.667Z,34.08
2023-04-05T12:25:42.788Z,34.24
2023-04-05T12:28:11.681Z,34.21
2023-04-05T12:30:49.794Z,34.37
2023-04-05T12:33:27.462Z,33.77
2023-04-05T12:35:55.426Z,33.21
2023-04-05T12:38:27.130Z,32.85
2023-04-05T12:42:36.853Z,32.43
2023-04-05T12:45:06.485Z,31.36
2023-04-05T12:47:35.767Z,32.23
2023-04-05T12:50:17.161Z,32.82
2023-04-05T12:52:55.288Z,32.08
2023-04-05T12:55:23.182Z,30.97
2023-04-05T12:57:53.997Z,31.41
2023-04-05T13:00:24.881Z,31.54
2023-04-05T13:02:53.733Z,30.82
2023-04-05T13:05:23.020Z,31.61
2023-04-05T13:07:51.247Z,30.96
2023-04-05T13:10:19.741Z,32.91
2023-04-05T13:12:47.961Z,34.43
2023-04-05T13:15:17.411Z,35.19
2023-04-05T13:17:49.858Z,33.46
2023-04-05T13:20:18.808Z,32.81
2023-04-05T13:22:46.604Z,32.72
2023-04-05T13:25:14.751Z,32.65
2023-04-05T13:27:42.487Z,31.94
2023-04-05T13:30:11.140Z,32.36
2023-04-05T13:32:41.464Z,32.69
2023-04-05T13:35:09.908Z,32.77
2023-04-05T13:37:37.838Z,33.56
2023-04-05T13:40:06.879Z,34.43
2023-04-05T13:42:34.594Z,35.17
2023-04-05T13:45:02.304Z,33.58
2023-04-05T13:47:30.214Z,34.31
2023-04-05T13:49:59.573Z,34.36
2023-04-05T13:52:27.364Z,33.50
2023-04-05T13:55:02.768Z,34.12
2023-04-05T13:57:31.863Z,35.25
2023-04-05T13:59:59.610Z,35.48
2023-04-05T14:02:27.667Z,34.68
2023-04-05T14:04:55.810Z,34.85
2023-04-05T14:07:24.947Z,36.13
2023-04-05T14:09:52.729Z,34.88
2023-04-05T14:12:20.712Z,34.33
2023-04-05T14:14:48.538Z,34.63
2023-04-05T14:17:16.357Z,35.27
2023-04-05T14:19:44.180Z,34.03
2023-04-05T14:22:12.109Z,33.05
2023-04-05T14:24:41.284Z,33.10
2023-04-05T14:27:09.056Z,32.51
2023-04-05T14:29:36.843Z,31.30
2023-04-05T14:32:05.046Z,31.80
2023-04-05T14:34:33.778Z,32.45
2023-04-05T14:37:04.150Z,31.95
2023-04-05T14:39:32.023Z,32.25
2023-04-05T14:42:01.479Z,31.34
2023-04-05T14:44:29.315Z,31.50
2023-04-05T14:46:57.179Z,31.13
2023-04-05T14:49:24.970Z,31.49
2023-04-05T14:51:52.855Z,31.32
2023-04-05T14:54:20.801Z,30.93
2023-04-05T14:56:48.780Z,31.37
2023-04-05T14:59:18.151Z,31.69
2023-04-05T15:01:47.306Z,31.32
2023-04-05T15:04:15.288Z,29.81
2023-04-05T15:06:43.195Z,30.86
2023-04-05T15:09:11.107Z,31.15
2023-04-05T15:11:40.175Z,31.44
2023-04-05T15:14:11.554Z,31.42
2023-04-05T15:16:47.389Z,31.45
2023-04-05T15:19:15.273Z,30.81
2023-04-05T15:21:44.022Z,30.66
2023-04-05T15:24:12.407Z,31.52
2023-04-05T15:26:40.950Z,32.98
2023-04-05T15:29:08.812Z,31.31
2023-04-05T15:31:36.681Z,30.12
2023-04-05T15:34:08.259Z,30.54
2023-04-05T15:36:36.576Z,30.89
2023-04-05T15:39:05.280Z,29.49
2023-04-05T15:41:34.736Z,30.83
2023-04-05T15:44:03.577Z,30.25
2023-04-05T15:46:31.967Z,30.85
2023-04-05T15:49:00.311Z,30.82
2023-04-05T15:51:29.913Z,30.90
2023-04-05T15:53:58.224Z,29.87
2023-04-05T15:56:26.167Z,29.57
2023-04-05T15:58:54.068Z,30.22
2023-04-05T16:01:21.985Z,29.52
2023-04-05T16:03:49.912Z,28.83
2023-04-05T16:06:17.787Z,28.25
2023-04-05T16:08:47.003Z,29.88
2023-04-05T16:12:20.973Z,29.61
2023-04-05T16:14:48.784Z,29.41
2023-04-05T16:17:16.614Z,30.19
2023-04-05T16:19:44.483Z,29.84
2023-04-05T16:22:12.261Z,30.61
2023-04-05T16:24:40.179Z,29.97
2023-04-05T16:27:07.993Z,30.79
2023-04-05T16:29:37.228Z,30.28
2023-04-05T16:32:05.047Z,31.12
2023-04-05T16:34:32.920Z,29.92
2023-04-05T16:37:00.769Z,30.74
2023-04-05T16:39:28.607Z,29.58
2023-04-05T16:41:56.723Z,30.36
2023-04-05T16:44:24.487Z,29.71
2023-04-05T16:46:54.187Z,29.50
2023-04-05T16:49:22.047Z,29.50
2023-04-05T16:51:49.860Z,29.98
2023-04-05T16:54:17.739Z,28.83
2023-04-05T16:56:45.644Z,29.51
2023-04-05T16:59:13.545Z,29.42
2023-04-05T17:01:41.542Z,29.94
2023-04-05T17:04:10.806Z,30.69
2023-04-05T17:06:38.721Z,30.65
2023-04-05T17:09:06.741Z,29.97
2023-04-05T17:11:34.709Z,30.68
2023-04-05T17:14:02.545Z,31.49
2023-04-05T17:16:30.445Z,32.08
2023-04-05T17:18:58.278Z,32.31
2023-04-05T17:21:27.670Z,32.41
2023-04-05T17:23:55.976Z,33.28
2023-04-05T17:26:24.522Z,33.43
2023-04-05T17:28:52.364Z,33.64
2023-04-05T17:31:20.487Z,33.80
2023-04-05T17:33:48.837Z,33.30
2023-04-05T17:36:16.913Z,33.27
2023-04-05T17:38:46.286Z,33.51
2023-04-05T17:41:14.296Z,33.56
2023-04-05T17:43:42.240Z,33.56
2023-04-05T17:46:13.750Z,34.26
2023-04-05T17:48:42.790Z,34.45
2023-04-05T17:51:10.817Z,34.10
2023-04-05T17:53:38.609Z,34.24
2023-04-05T17:56:07.953Z,34.31
2023-04-05T17:58:35.769Z,34.71
2023-04-05T18:01:03.529Z,34.83
2023-04-05T18:03:31.373Z,35.07
2023-04-05T18:05:59.377Z,35.25
2023-04-05T18:08:27.377Z,35.65
2023-04-05T18:10:58.699Z,36.79
2023-04-05T18:13:28.635Z,36.71
2023-04-05T18:15:57.520Z,40.04
2023-04-05T18:18:26.436Z,39.93
2023-04-05T18:20:55.314Z,40.87
2023-04-05T18:23:24.925Z,42.56
2023-04-05T18:25:53.686Z,42.42
2023-04-05T18:28:23.259Z,41.97
2023-04-05T18:30:53.105Z,43.03
2023-04-05T18:33:22.390Z,43.29
2023-04-05T18:35:50.886Z,43.52
2023-04-05T18:38:19.011Z,42.98
2023-04-05T18:40:46.904Z,43.14
2023-04-05T18:43:15.167Z,42.80
2023-04-05T18:45:43.074Z,43.38
2023-04-05T18:48:12.562Z,43.71
2023-04-05T18:50:40.403Z,44.23
2023-04-05T18:53:09.412Z,45.80
2023-04-05T18:55:37.351Z,44.71
2023-04-05T18:58:05.445Z,44.69
2023-04-05T19:00:33.213Z,44.51
2023-04-05T19:03:01.765Z,45.41
2023-04-05T19:05:31.152Z,45.66
2023-04-05T19:07:58.945Z,46.05
2023-04-05T19:10:26.781Z,46.06
2023-04-05T19:12:54.616Z,46.47
2023-04-05T19:15:22.500Z,47.00
2023-04-05T19:17:50.432Z,48.04
2023-04-05T19:20:18.300Z,49.05
2023-04-05T19:22:47.472Z,49.05
2023-04-05T19:25:15.542Z,48.54
2023-04-05T19:27:43.344Z,48.96
2023-04-05T19:30:11.909Z,48.82
2023-04-05T19:32:39.830Z,48.13
2023-04-05T19:35:09.862Z,47.99
2023-04-05T19:37:37.765Z,48.11
2023-04-05T19:40:08.471Z,47.97
2023-04-05T19:42:36.466Z,46.92
2023-04-05T19:45:08.740Z,47.06
2023-04-05T19:47:37.488Z,46.01
2023-04-05T19:50:10.509Z,45.61
2023-04-05T19:52:42.035Z,46.00
2023-04-05T19:55:28.358Z,47.22
2023-04-05T19:57:56.767Z,47.60
2023-04-05T20:00:36.911Z,47.55
2023-04-05T20:03:10.066Z,47.77
2023-04-05T20:06:01.094Z,47.89
2023-04-05T20:08:29.128Z,47.71
2023-04-05T20:10:58.389Z,47.97
2023-04-05T20:13:26.314Z,48.26
2023-04-05T20:15:54.385Z,48.51
2023-04-05T20:18:24.733Z,48.85
2023-04-05T20:20:54.340Z,49.06
2023-04-05T20:23:23.225Z,49.41
2023-04-05T20:25:52.097Z,49.12
2023-04-05T20:28:36.479Z,48.90
2023-04-05T20:31:06.787Z,49.30
2023-04-05T20:33:47.986Z,49.43
2023-04-05T20:36:19.166Z,49.66
2023-04-05T20:38:47.905Z,49.37
2023-04-05T20:41:16.960Z,49.48
2023-04-05T20:43:46.315Z,50.18
2023-04-05T20:46:14.592Z,50.50
2023-04-05T20:48:42.540Z,50.94
2023-04-05T20:51:11.463Z,51.74
2023-04-05T20:53:39.784Z,50.62
2023-04-05T20:56:08.995Z,50.71
2023-04-05T20:58:37.627Z,50.35
2023-04-05T21:01:07.562Z,50.48
2023-04-05T21:03:37.830Z,49.61
2023-04-05T21:06:08.147Z,48.70
2023-04-05T21:08:37.042Z,49.20
2023-04-05T21:11:05.143Z,49.55
2023-04-05T21:13:33.388Z,49.46
2023-04-05T21:16:01.261Z,49.63
2023-04-05T21:18:30.762Z,49.50
2023-04-05T21:20:58.594Z,49.39
2023-04-05T21:23:28.140Z,49.74
2023-04-05T21:25:56.476Z,50.22
2023-04-05T21:28:24.516Z,49.65
2023-04-05T21:30:52.322Z,49.49
2023-04-05T21:33:20.660Z,49.45
2023-04-05T21:35:50.802Z,49.29
2023-04-05T21:38:18.933Z,49.25
2023-04-05T21:40:47.871Z,49.36
2023-04-05T21:43:15.775Z,49.07
2023-04-05T21:45:43.564Z,49.29
2023-04-05T21:48:11.345Z,48.77
2023-04-05T21:50:39.088Z,48.62
2023-04-05T21:53:09.774Z,48.82
2023-04-05T21:55:37.637Z,48.56
2023-04-05T21:58:05.478Z,48.97
2023-04-05T22:00:33.413Z,49.07
2023-04-05T22:03:01.410Z,49.25
2023-04-05T22:05:37.185Z,49.76
2023-04-05T22:08:07.217Z,49.48
2023-04-05T22:10:36.999Z,49.52
2023-04-05T22:13:04.986Z,49.94
2023-04-05T22:15:32.736Z,49.29
2023-04-05T22:18:00.544Z,49.29
2023-04-05T22:20:28.370Z,50.09
2023-04-05T22:22:56.189Z,49.99
2023-04-05T22:25:26.207Z,50.98
2023-04-05T22:28:00.095Z,50.90
2023-04-05T22:30:28.787Z,50.23
2023-04-05T22:32:56.794Z,50.29
2023-04-05T22:35:24.758Z,50.87
2023-04-05T22:37:52.757Z,50.68
2023-04-05T22:40:26.202Z,50.65
2023-04-05T22:42:55.461Z,51.16
2023-04-05T22:45:23.690Z,51.00
2023-04-05T22:47:51.676Z,50.99
2023-04-05T22:50:19.657Z,51.38
2023-04-05T22:52:47.480Z,51.10
2023-04-05T22:55:15.708Z,51.11
2023-04-05T22:57:43.470Z,51.30
2023-04-05T23:00:14.187Z,51.12
2023-04-05T23:02:42.072Z,51.35
2023-04-05T23:05:10.530Z,51.36
2023-04-05T23:07:38.365Z,51.07
2023-04-05T23:10:06.636Z,50.95
2023-04-05T23:12:34.423Z,50.89
2023-04-05T23:15:02.269Z,51.08
2023-04-05T23:17:31.646Z,51.15
2023-04-05T23:19:59.444Z,50.91
2023-04-05T23:22:27.467Z,50.52
2023-04-05T23:24:55.311Z,50.81
2023-04-05T23:27:23.148Z,51.01
2023-04-05T23:29:51.086Z,50.81
2023-04-05T23:32:18.831Z,50.66
2023-04-05T23:34:48.397Z,50.84
2023-04-05T23:37:16.498Z,50.99
2023-04-05T23:39:44.278Z,50.85
2023-04-05T23:42:12.052Z,51.58
2023-04-05T23:44:39.863Z,50.82
2023-04-05T23:47:07.756Z,51.22
2023-04-05T23:49:35.554Z,51.52
2023-04-05T23:52:05.049Z,51.50
2023-04-05T23:54:32.828Z,51.78
2023-04-05T23:57:01.447Z,52.06
2023-04-05T23:59:29.274Z,52.07
